Anthony, FL

11:40 AM EDT on September 23, 2014 (GMT -0400)
Ocala Regional-Taylor | Change Station
CLOSE
Current Station
Airport
Location: Ocala,
Elevation: 89 ft
Nearby Weather Stations

Elev 89 ft 29.17 °N, 82.22 °W | Updated 1 hour ago

Rain
Rain
72 °F
Feels Like 72 °F
N
5
Wind Variable Wind from NNE

Today
High -- | Low -- °F
--% Chance of Precip.
Yesterday
High -- | Low -- °F
Precip. -- in
7:17 AM 7:23 PM
Waning Crescent, 0% visible
Pressure 30.05 in
Visibility 0.8 miles
Clouds Overcast 400 ft
Dew Point 70 °F
Humidity 94%
Rainfall 0.00 in
Snow Depth Not available.
UV 1 out of 12
Pollen 2.60 out of 12
Air Quality Not available.
Flu Activity Not available.
METAR KOCF 231350Z 02004KT 3/4SM -RA BR OVC004 22/21 A3005

More Conditions Fewer Conditions

Pressure 30.05 in
Visibility 0.8 miles
Clouds Overcast 400 ft
Dew Point 70 °F
Humidity 94%
Rainfall 0.00 in
Snow Depth Not available.
UV 1 out of 12
Pollen 2.60 out of 12
Air Quality Not available.
Flu Activity Not available.
METAR KOCF 231350Z 02004KT 3/4SM -RA BR OVC004 22/21 A3005

More Conditions Fewer Conditions

10-Day Weather Forecast

Almanac

Astronomy

Sep. 23, 2014 Rise Set
Actual Time 7:17 AM EDT 7:23 PM EDT
Civil Twilight 6:53 AM EDT 7:47 PM EDT
Nautical Twilight 6:25 AM EDT 8:15 PM EDT
Astronomical Twilight 5:58 AM EDT 8:42 PM EDT
Moon 6:41 AM EDT 7:03 PM EDT
Length of Visible Light 12h 53m
Length of Day
12h 06m
Tomorrow will be 1m 46s shorter.
Waning Crescent, 0% of the Moon is Illuminated
Today
Waning Crescent
Sep 24
New
Oct 1
First Quarter
Oct 8
Full
Oct 15
Last Quarter

Today's Extremes

State Highs State Lows

Community

WunderPhotos

Upload Photos

1,755,727 photos uploaded!

WunderBlogs® & News

Nearby

Snow Depth

Station Depth Elevation
No new snow has been reported.

Earthquake Activity

City Distance Mag. Time & Date
No recent earthquake activity has been reported nearby.
Minimum magnitude displayed is 2.5.

Coastal Water Temperatures

Place Temperature
No Stations Reporting

Nearby Weather Stations